Big Bear Station Historical Data
Daily Summary for April 16, 2017 Units:  English    Metric   Both
« Previous Day
Next Day »
Daily Weekly Monthly Yearly Custom
  High: Low: Average:
Temperature: 67.6 °F 45.9 °F 58.1 °F
Dew Point: 29.9 °F 10.5 °F 21.9 °F
Humidity: 51 % 16 % 26 %
Wind Speed: 6.3 mph 0.0 mph 2.8 mph
Wind Gust: -999.0 mph - -
Wind:- - West
Pressure: 30.19 in 30.16 in -
Precipitation: 0.00 in    
Historical Graphs
 
 
Tabular Data for April 16, 2017
Time Temperature Dew Point Pressure Wind Wind Speed Wind Gust Humidity Rainfall Rate (Hourly)
09:14 50.9 °F 22.8 °F 30.16 in NW 1.7 mph -999.0 mph 33 % 0 in
09:29 53.6 °F 22.1 °F 30.16 in NNW 2.7 mph -999.0 mph 29 % 0 in
09:44 55.0 °F 24.1 °F 30.17 in NW 3.7 mph -999.0 mph 30 % 0 in
09:59 56.5 °F 20.1 °F 30.17 in NNW 3.2 mph -999.0 mph 24 % 0 in
10:15 58.8 °F 17.8 °F 30.17 in NNE 3.7 mph -999.0 mph 20 % 0 in
10:30 60.3 °F 19.0 °F 30.17 in NW 3.2 mph -999.0 mph 20 % 0 in
10:45 61.3 °F 17.4 °F 30.17 in NW 4.7 mph -999.0 mph 18 % 0 in
11:01 62.4 °F 20.8 °F 30.17 in WNW 4.7 mph -999.0 mph 20 % 0 in
11:16 63.0 °F 20.1 °F 30.17 in NNE 4.2 mph -999.0 mph 19 % 0 in
11:31 64.6 °F 23.8 °F 30.17 in NW 4.2 mph -999.0 mph 21 % 0 in
11:46 64.8 °F 23.9 °F 30.17 in NW 3.2 mph -999.0 mph 21 % 0 in
12:01 65.7 °F 26.9 °F 30.17 in NW 3.7 mph -999.0 mph 23 % 0 in
12:17 65.7 °F 24.7 °F 30.17 in NNW 4.2 mph -999.0 mph 21 % 0 in
12:32 66.2 °F 27.3 °F 30.17 in NNW 5.8 mph -999.0 mph 23 % 0 in
12:48 66.0 °F 28.2 °F 30.17 in WNW 5.3 mph -999.0 mph 24 % 0 in
13:03 65.1 °F 26.4 °F 30.18 in NW 4.7 mph -999.0 mph 23 % 0 in
13:19 65.7 °F 19.7 °F 30.18 in North 5.3 mph -999.0 mph 17 % 0 in
13:34 66.4 °F 22.9 °F 30.18 in NW 6.3 mph -999.0 mph 19 % 0 in
13:50 66.7 °F 24.3 °F 30.18 in WNW 5.3 mph -999.0 mph 20 % 0 in
14:05 66.6 °F 27.6 °F 30.18 in WNW 3.7 mph -999.0 mph 23 % 0 in
14:20 67.5 °F 23.8 °F 30.18 in NW 5.8 mph -999.0 mph 19 % 0 in
14:36 67.6 °F 22.6 °F 30.17 in North 4.2 mph -999.0 mph 18 % 0 in
14:51 67.1 °F 19.4 °F 30.17 in SW 2.2 mph -999.0 mph 16 % 0 in
15:06 67.5 °F 21.1 °F 30.17 in NW 4.2 mph -999.0 mph 17 % 0 in
15:21 65.3 °F 17.9 °F 30.17 in SW 4.7 mph -999.0 mph 16 % 0 in
15:37 64.6 °F 20.1 °F 30.17 in West 1.7 mph -999.0 mph 18 % 0 in
15:52 64.4 °F 22.4 °F 30.17 in WNW 2.2 mph -999.0 mph 20 % 0 in
16:07 63.9 °F 20.8 °F 30.16 in NW 3.7 mph -999.0 mph 19 % 0 in
16:22 63.9 °F 20.8 °F 30.17 in NW 5.3 mph -999.0 mph 19 % 0 in
16:38 64.6 °F 20.1 °F 30.17 in East 2.2 mph -999.0 mph 18 % 0 in
16:53 67.3 °F 19.5 °F 30.17 in NW 4.2 mph -999.0 mph 16 % 0 in
17:08 66.9 °F 22.0 °F 30.16 in North 4.2 mph -999.0 mph 18 % 0 in
17:23 62.1 °F 23.8 °F 30.16 in WNW 2.7 mph -999.0 mph 23 % 0 in
17:39 58.6 °F 20.9 °F 30.16 in West 2.2 mph -999.0 mph 23 % 0 in
17:54 57.9 °F 21.3 °F 30.16 in South 1.1 mph -999.0 mph 24 % 0 in
18:10 59.9 °F 22.0 °F 30.16 in ENE 1.7 mph -999.0 mph 23 % 0 in
18:25 62.2 °F 22.9 °F 30.16 in SE 1.7 mph -999.0 mph 22 % 0 in
18:40 57.0 °F 22.4 °F 30.16 in ESE 1.7 mph -999.0 mph 26 % 0 in
18:55 54.1 °F 24.9 °F 30.16 in SSW 2.7 mph -999.0 mph 32 % 0 in
19:11 52.0 °F 26.5 °F 30.16 in WNW 1.1 mph -999.0 mph 37 % 0 in
19:26 50.4 °F 27.0 °F 30.16 in Calm   -999.0 mph 40 % 0 in
19:41 48.9 °F 26.2 °F 30.16 in SSW 1.7 mph -999.0 mph 41 % 0 in
19:56 48.0 °F 27.1 °F 30.16 in WNW 2.7 mph -999.0 mph 44 % 0 in
20:11 47.3 °F 29.1 °F 30.17 in North 1.1 mph -999.0 mph 49 % 0 in
20:27 47.1 °F 29.9 °F 30.17 in Calm   -999.0 mph 51 % 0 in
20:42 46.6 °F 28.5 °F 30.18 in NNE 1.1 mph -999.0 mph 49 % 0 in
20:57 46.4 °F 29.2 °F 30.18 in Calm   -999.0 mph 51 % 0 in
21:12 45.9 °F 27.8 °F 30.18 in Calm   -999.0 mph 49 % 0 in
21:58 46.8 °F 12.8 °F 30.19 in Calm   -999.0 mph 25 % 0 in
22:13 47.3 °F 11.3 °F 30.19 in NNW 1.1 mph -999.0 mph 23 % 0 in
22:28 47.5 °F 10.5 °F 30.18 in SSE 3.2 mph -999.0 mph 22 % 0 in
22:44 47.5 °F 12.5 °F 30.18 in SSE 1.1 mph -999.0 mph 24 % 0 in
22:59 46.8 °F 13.7 °F 30.18 in West 1.1 mph -999.0 mph 26 % 0 in
23:14 46.6 °F 14.4 °F 30.18 in SSW 1.7 mph -999.0 mph 27 % 0 in
23:30 46.9 °F 15.5 °F 30.18 in Calm   -999.0 mph 28 % 0 in
23:45 46.4 °F 13.3 °F 30.18 in NNW 1.7 mph -999.0 mph 26 % 0 in
Big Bear CA Weather
Compliments of Weather Underground - 1.25 mb